sensor_id;sensor_type;location;lat;lon;timestamp;pressure;altitude;pressure_sealevel;temperature;humidity
49779;BME280;36217;60.232;24.776;2023-03-03T00:01:34;100073.33;;;1.64;91.68
49779;BME280;36217;60.232;24.776;2023-03-03T00:04:01;100071.31;;;1.59;91.83
49779;BME280;36217;60.232;24.776;2023-03-03T00:06:28;100069.93;;;1.53;92.19
49779;BME280;36217;60.232;24.776;2023-03-03T00:08:55;100070.64;;;1.62;92.34
49779;BME280;36217;60.232;24.776;2023-03-03T00:11:22;100064.02;;;1.34;92.71
49779;BME280;36217;60.232;24.776;2023-03-03T00:13:51;100067.54;;;1.39;91.93
49779;BME280;36217;60.232;24.776;2023-03-03T00:16:23;100067.79;;;1.37;91.94
49779;BME280;36217;60.232;24.776;2023-03-03T00:18:51;100068.07;;;1.26;92.04
49779;BME280;36217;60.232;24.776;2023-03-03T00:21:24;100066.98;;;1.52;91.79
49779;BME280;36217;60.232;24.776;2023-03-03T00:23:52;100067.33;;;1.49;92.36
49779;BME280;36217;60.232;24.776;2023-03-03T00:26:22;100066.04;;;1.41;92.65
49779;BME280;36217;60.232;24.776;2023-03-03T00:28:51;100063.62;;;1.34;92.85
49779;BME280;36217;60.232;24.776;2023-03-03T00:31:20;100063.86;;;0.96;92.73
49779;BME280;36217;60.232;24.776;2023-03-03T00:33:50;100062.44;;;0.98;93.00
49779;BME280;36217;60.232;24.776;2023-03-03T00:36:26;100060.10;;;1.10;93.89
49779;BME280;36217;60.232;24.776;2023-03-03T00:39:12;100059.92;;;1.14;92.88
49779;BME280;36217;60.232;24.776;2023-03-03T00:41:43;100058.02;;;1.23;93.12
49779;BME280;36217;60.232;24.776;2023-03-03T00:44:43;100051.48;;;0.89;93.73
49779;BME280;36217;60.232;24.776;2023-03-03T00:47:23;100055.47;;;0.89;93.51
49779;BME280;36217;60.232;24.776;2023-03-03T00:50:22;100056.79;;;1.29;92.46
49779;BME280;36217;60.232;24.776;2023-03-03T00:53:20;100052.51;;;0.87;93.94
49779;BME280;36217;60.232;24.776;2023-03-03T00:55:49;100051.97;;;1.02;93.79
49779;BME280;36217;60.232;24.776;2023-03-03T00:58:17;100053.34;;;1.01;93.70
49779;BME280;36217;60.232;24.776;2023-03-03T01:00:44;100053.78;;;1.02;94.73
49779;BME280;36217;60.232;24.776;2023-03-03T01:03:13;100054.10;;;1.08;94.56
49779;BME280;36217;60.232;24.776;2023-03-03T01:05:41;100053.67;;;1.02;93.85
49779;BME280;36217;60.232;24.776;2023-03-03T01:08:08;100053.02;;;1.13;93.52
49779;BME280;36217;60.232;24.776;2023-03-03T01:10:39;100051.25;;;1.00;94.42
49779;BME280;36217;60.232;24.776;2023-03-03T01:13:09;100054.61;;;0.99;93.67
49779;BME280;36217;60.232;24.776;2023-03-03T01:15:37;100056.76;;;1.01;94.16
49779;BME280;36217;60.232;24.776;2023-03-03T01:18:04;100058.49;;;1.03;94.43
49779;BME280;36217;60.232;24.776;2023-03-03T01:20:31;100055.05;;;1.12;93.81
49779;BME280;36217;60.232;24.776;2023-03-03T01:22:58;100052.30;;;1.09;94.45
49779;BME280;36217;60.232;24.776;2023-03-03T01:25:26;100051.80;;;1.02;94.28
49779;BME280;36217;60.232;24.776;2023-03-03T01:27:53;100045.56;;;0.90;95.15
49779;BME280;36217;60.232;24.776;2023-03-03T01:30:20;100048.23;;;0.80;94.98
49779;BME280;36217;60.232;24.776;2023-03-03T01:32:47;100050.10;;;0.90;95.32
49779;BME280;36217;60.232;24.776;2023-03-03T01:35:15;100051.32;;;0.72;95.58
49779;BME280;36217;60.232;24.776;2023-03-03T01:37:41;100048.72;;;0.86;95.20
49779;BME280;36217;60.232;24.776;2023-03-03T01:40:14;100048.53;;;0.95;95.30
49779;BME280;36217;60.232;24.776;2023-03-03T01:42:41;100048.19;;;1.23;94.14
49779;BME280;36217;60.232;24.776;2023-03-03T01:45:13;100045.92;;;0.95;94.92
49779;BME280;36217;60.232;24.776;2023-03-03T01:47:46;100042.24;;;0.79;95.44
49779;BME280;36217;60.232;24.776;2023-03-03T01:50:18;100042.50;;;1.01;95.96
49779;BME280;36217;60.232;24.776;2023-03-03T01:52:46;100043.33;;;1.04;95.71
49779;BME280;36217;60.232;24.776;2023-03-03T01:55:18;100044.86;;;1.16;95.62
49779;BME280;36217;60.232;24.776;2023-03-03T01:57:51;100040.66;;;0.99;96.19
49779;BME280;36217;60.232;24.776;2023-03-03T02:00:20;100037.16;;;0.83;97.19
49779;BME280;36217;60.232;24.776;2023-03-03T02:02:47;100034.65;;;0.89;96.74
49779;BME280;36217;60.232;24.776;2023-03-03T02:05:15;100035.39;;;0.94;96.72
49779;BME280;36217;60.232;24.776;2023-03-03T02:07:43;100036.97;;;0.80;97.96
49779;BME280;36217;60.232;24.776;2023-03-03T02:10:12;100037.73;;;0.76;98.10
49779;BME280;36217;60.232;24.776;2023-03-03T02:12:42;100041.10;;;0.71;98.36
49779;BME280;36217;60.232;24.776;2023-03-03T02:15:18;100041.71;;;0.68;98.49
49779;BME280;36217;60.232;24.776;2023-03-03T02:17:48;100038.06;;;0.76;98.70
49779;BME280;36217;60.232;24.776;2023-03-03T02:20:24;100040.70;;;0.62;99.03
49779;BME280;36217;60.232;24.776;2023-03-03T02:22:59;100037.41;;;0.58;100.00
49779;BME280;36217;60.232;24.776;2023-03-03T02:25:35;100038.55;;;0.61;100.00
49779;BME280;36217;60.232;24.776;2023-03-03T02:28:03;100036.39;;;0.58;100.00
49779;BME280;36217;60.232;24.776;2023-03-03T02:30:36;100036.36;;;0.66;100.00
49779;BME280;36217;60.232;24.776;2023-03-03T02:33:04;100037.46;;;0.47;100.00
49779;BME280;36217;60.232;24.776;2023-03-03T02:35:34;100038.02;;;0.66;100.00
49779;BME280;36217;60.232;24.776;2023-03-03T02:38:08;100034.63;;;0.53;100.00
49779;BME280;36217;60.232;24.776;2023-03-03T02:40:43;100030.76;;;0.82;100.00
49779;BME280;36217;60.232;24.776;2023-03-03T02:43:11;100032.54;;;0.63;100.00
49779;BME280;36217;60.232;24.776;2023-03-03T02:45:43;100035.18;;;0.60;100.00
49779;BME280;36217;60.232;24.776;2023-03-03T02:48:10;100035.38;;;0.64;100.00
49779;BME280;36217;60.232;24.776;2023-03-03T02:50:37;100033.99;;;0.64;100.00
49779;BME280;36217;60.232;24.776;2023-03-03T02:53:04;100037.79;;;0.53;100.00
49779;BME280;36217;60.232;24.776;2023-03-03T02:55:32;100033.35;;;0.37;100.00
49779;BME280;36217;60.232;24.776;2023-03-03T02:57:59;100030.36;;;0.74;100.00
49779;BME280;36217;60.232;24.776;2023-03-03T03:00:26;100032.25;;;0.70;100.00
49779;BME280;36217;60.232;24.776;2023-03-03T03:02:53;100031.80;;;0.63;100.00
49779;BME280;36217;60.232;24.776;2023-03-03T03:05:20;100031.70;;;0.59;100.00
49779;BME280;36217;60.232;24.776;2023-03-03T03:07:48;100030.31;;;0.80;100.00
49779;BME280;36217;60.232;24.776;2023-03-03T03:10:15;100034.72;;;0.35;100.00
49779;BME280;36217;60.232;24.776;2023-03-03T03:12:42;100035.23;;;0.54;100.00
49779;BME280;36217;60.232;24.776;2023-03-03T03:15:10;100034.52;;;0.57;100.00
49779;BME280;36217;60.232;24.776;2023-03-03T03:17:37;100032.00;;;0.40;100.00
49779;BME280;36217;60.232;24.776;2023-03-03T03:20:05;100029.92;;;0.62;100.00
49779;BME280;36217;60.232;24.776;2023-03-03T03:22:33;100029.12;;;0.46;100.00
49779;BME280;36217;60.232;24.776;2023-03-03T03:25:06;100030.35;;;0.79;100.00
49779;BME280;36217;60.232;24.776;2023-03-03T03:27:33;100032.86;;;0.47;100.00
49779;BME280;36217;60.232;24.776;2023-03-03T03:30:00;100033.81;;;0.99;100.00
49779;BME280;36217;60.232;24.776;2023-03-03T03:32:27;100035.95;;;0.51;100.00
49779;BME280;36217;60.232;24.776;2023-03-03T03:34:55;100035.37;;;0.47;100.00
49779;BME280;36217;60.232;24.776;2023-03-03T03:37:22;100034.63;;;0.53;100.00
49779;BME280;36217;60.232;24.776;2023-03-03T03:39:54;100039.16;;;0.41;100.00
49779;BME280;36217;60.232;24.776;2023-03-03T03:42:21;100040.96;;;0.56;100.00
49779;BME280;36217;60.232;24.776;2023-03-03T03:44:49;100041.90;;;0.91;100.00
49779;BME280;36217;60.232;24.776;2023-03-03T03:47:16;100039.32;;;0.57;100.00
49779;BME280;36217;60.232;24.776;2023-03-03T03:49:43;100045.28;;;0.50;100.00
49779;BME280;36217;60.232;24.776;2023-03-03T03:52:10;100042.71;;;0.60;100.00
49779;BME280;36217;60.232;24.776;2023-03-03T03:54:37;100049.55;;;0.34;100.00
49779;BME280;36217;60.232;24.776;2023-03-03T03:57:04;100043.81;;;0.48;100.00
49779;BME280;36217;60.232;24.776;2023-03-03T03:59:32;100045.50;;;0.56;100.00
49779;BME280;36217;60.232;24.776;2023-03-03T04:01:59;100045.32;;;0.81;100.00
49779;BME280;36217;60.232;24.776;2023-03-03T04:04:26;100045.63;;;0.58;100.00
49779;BME280;36217;60.232;24.776;2023-03-03T04:06:53;100047.05;;;0.94;100.00
49779;BME280;36217;60.232;24.776;2023-03-03T04:09:21;100049.71;;;0.55;100.00
49779;BME280;36217;60.232;24.776;2023-03-03T04:11:48;100051.22;;;0.68;100.00
49779;BME280;36217;60.232;24.776;2023-03-03T04:14:15;100048.98;;;1.29;100.00
49779;BME280;36217;60.232;24.776;2023-03-03T04:16:47;100052.30;;;0.74;100.00
49779;BME280;36217;60.232;24.776;2023-03-03T04:19:14;100048.85;;;0.65;100.00
49779;BME280;36217;60.232;24.776;2023-03-03T04:21:42;100050.28;;;1.02;100.00
49779;BME280;36217;60.232;24.776;2023-03-03T04:24:09;100049.25;;;0.68;100.00
49779;BME280;36217;60.232;24.776;2023-03-03T04:26:36;100050.01;;;0.86;100.00
49779;BME280;36217;60.232;24.776;2023-03-03T04:29:03;100052.74;;;0.54;100.00
49779;BME280;36217;60.232;24.776;2023-03-03T04:31:31;100052.11;;;0.44;100.00
49779;BME280;36217;60.232;24.776;2023-03-03T04:33:58;100051.08;;;0.64;100.00
49779;BME280;36217;60.232;24.776;2023-03-03T04:36:25;100046.42;;;0.52;100.00
49779;BME280;36217;60.232;24.776;2023-03-03T04:38:52;100051.24;;;0.42;100.00
49779;BME280;36217;60.232;24.776;2023-03-03T04:41:19;100048.21;;;0.39;100.00
49779;BME280;36217;60.232;24.776;2023-03-03T04:43:46;100047.50;;;0.07;100.00
49779;BME280;36217;60.232;24.776;2023-03-03T04:46:14;100046.93;;;0.19;100.00
49779;BME280;36217;60.232;24.776;2023-03-03T04:48:41;100047.51;;;-0.07;100.00
49779;BME280;36217;60.232;24.776;2023-03-03T04:51:08;100048.67;;;0.11;100.00
49779;BME280;36217;60.232;24.776;2023-03-03T04:53:35;100051.59;;;0.30;100.00
49779;BME280;36217;60.232;24.776;2023-03-03T04:56:03;100054.28;;;0.27;100.00
49779;BME280;36217;60.232;24.776;2023-03-03T04:58:30;100057.18;;;0.29;100.00
49779;BME280;36217;60.232;24.776;2023-03-03T05:00:57;100052.43;;;0.83;100.00
49779;BME280;36217;60.232;24.776;2023-03-03T05:03:24;100057.13;;;0.51;100.00
49779;BME280;36217;60.232;24.776;2023-03-03T05:05:51;100052.74;;;0.17;100.00
49779;BME280;36217;60.232;24.776;2023-03-03T05:08:19;100055.85;;;0.29;100.00
49779;BME280;36217;60.232;24.776;2023-03-03T05:10:46;100057.45;;;0.02;100.00
49779;BME280;36217;60.232;24.776;2023-03-03T05:13:13;100053.58;;;0.38;100.00
49779;BME280;36217;60.232;24.776;2023-03-03T05:15:40;100052.97;;;0.14;100.00
49779;BME280;36217;60.232;24.776;2023-03-03T05:18:07;100052.55;;;0.14;100.00
49779;BME280;36217;60.232;24.776;2023-03-03T05:20:34;100052.04;;;0.69;100.00
49779;BME280;36217;60.232;24.776;2023-03-03T05:23:07;100050.34;;;0.27;100.00
49779;BME280;36217;60.232;24.776;2023-03-03T05:25:59;100042.85;;;0.63;100.00
49779;BME280;36217;60.232;24.776;2023-03-03T05:28:26;100044.92;;;0.30;100.00
49779;BME280;36217;60.232;24.776;2023-03-03T05:30:53;100050.57;;;0.67;100.00
49779;BME280;36217;60.232;24.776;2023-03-03T05:33:21;100053.98;;;0.34;100.00
49779;BME280;36217;60.232;24.776;2023-03-03T05:35:52;100051.98;;;0.63;100.00
49779;BME280;36217;60.232;24.776;2023-03-03T05:38:20;100051.13;;;0.53;100.00
49779;BME280;36217;60.232;24.776;2023-03-03T05:40:47;100049.20;;;0.47;100.00
49779;BME280;36217;60.232;24.776;2023-03-03T05:43:14;100052.46;;;0.58;100.00
49779;BME280;36217;60.232;24.776;2023-03-03T05:45:41;100045.08;;;0.30;100.00
49779;BME280;36217;60.232;24.776;2023-03-03T05:48:08;100044.76;;;0.62;100.00
49779;BME280;36217;60.232;24.776;2023-03-03T05:50:36;100050.36;;;0.50;100.00
49779;BME280;36217;60.232;24.776;2023-03-03T05:53:04;100048.05;;;0.55;100.00
49779;BME280;36217;60.232;24.776;2023-03-03T05:55:31;100052.16;;;0.61;100.00
49779;BME280;36217;60.232;24.776;2023-03-03T05:57:58;100050.92;;;0.99;100.00
49779;BME280;36217;60.232;24.776;2023-03-03T06:00:25;100046.43;;;1.04;100.00
49779;BME280;36217;60.232;24.776;2023-03-03T06:02:52;100043.62;;;1.25;100.00
49779;BME280;36217;60.232;24.776;2023-03-03T06:05:19;100043.39;;;1.17;100.00
49779;BME280;36217;60.232;24.776;2023-03-03T06:07:47;100044.66;;;1.55;100.00
49779;BME280;36217;60.232;24.776;2023-03-03T06:10:14;100047.87;;;1.68;99.58
49779;BME280;36217;60.232;24.776;2023-03-03T06:12:41;100045.22;;;1.72;99.60
49779;BME280;36217;60.232;24.776;2023-03-03T06:15:09;100044.97;;;1.82;99.42
49779;BME280;36217;60.232;24.776;2023-03-03T06:17:36;100043.12;;;1.69;98.42
49779;BME280;36217;60.232;24.776;2023-03-03T06:20:04;100044.08;;;1.69;97.74
49779;BME280;36217;60.232;24.776;2023-03-03T06:22:31;100042.98;;;1.94;97.57
49779;BME280;36217;60.232;24.776;2023-03-03T06:24:59;100045.92;;;1.94;97.26
49779;BME280;36217;60.232;24.776;2023-03-03T06:27:26;100042.94;;;2.12;95.94
49779;BME280;36217;60.232;24.776;2023-03-03T06:29:53;100041.08;;;1.54;96.32
49779;BME280;36217;60.232;24.776;2023-03-03T06:32:20;100039.65;;;1.71;95.22
49779;BME280;36217;60.232;24.776;2023-03-03T06:34:47;100039.36;;;1.82;95.57
49779;BME280;36217;60.232;24.776;2023-03-03T06:37:15;100039.86;;;2.18;93.38
49779;BME280;36217;60.232;24.776;2023-03-03T06:39:42;100042.19;;;2.45;93.09
49779;BME280;36217;60.232;24.776;2023-03-03T06:42:09;100042.00;;;2.18;93.14
49779;BME280;36217;60.232;24.776;2023-03-03T06:44:36;100043.38;;;2.33;92.61
49779;BME280;36217;60.232;24.776;2023-03-03T06:47:03;100042.26;;;2.12;92.65
49779;BME280;36217;60.232;24.776;2023-03-03T06:49:30;100036.92;;;2.36;91.88
49779;BME280;36217;60.232;24.776;2023-03-03T06:51:58;100037.10;;;2.81;90.90
49779;BME280;36217;60.232;24.776;2023-03-03T06:54:27;100038.34;;;2.19;90.88
49779;BME280;36217;60.232;24.776;2023-03-03T06:56:58;100039.28;;;2.47;90.69
49779;BME280;36217;60.232;24.776;2023-03-03T06:59:26;100036.94;;;2.37;89.78
49779;BME280;36217;60.232;24.776;2023-03-03T07:01:54;100037.90;;;2.57;88.95
49779;BME280;36217;60.232;24.776;2023-03-03T07:04:26;100036.54;;;2.53;89.36
49779;BME280;36217;60.232;24.776;2023-03-03T07:06:53;100037.25;;;2.56;88.68
49779;BME280;36217;60.232;24.776;2023-03-03T07:09:22;100040.14;;;2.89;87.22
49779;BME280;36217;60.232;24.776;2023-03-03T07:11:50;100041.08;;;2.40;88.26
49779;BME280;36217;60.232;24.776;2023-03-03T07:14:19;100031.74;;;2.67;87.92
49779;BME280;36217;60.232;24.776;2023-03-03T07:16:46;100034.24;;;2.74;87.01
49779;BME280;36217;60.232;24.776;2023-03-03T07:19:19;100042.98;;;2.54;87.16
49779;BME280;36217;60.232;24.776;2023-03-03T07:21:47;100039.23;;;2.89;86.17
49779;BME280;36217;60.232;24.776;2023-03-03T07:24:24;100038.66;;;3.21;85.04
49779;BME280;36217;60.232;24.776;2023-03-03T07:26:52;100031.42;;;2.92;85.47
49779;BME280;36217;60.232;24.776;2023-03-03T07:29:23;100029.15;;;3.12;84.85
49779;BME280;36217;60.232;24.776;2023-03-03T07:31:52;100024.48;;;3.11;83.62
49779;BME280;36217;60.232;24.776;2023-03-03T07:34:22;100027.13;;;2.89;85.07
49779;BME280;36217;60.232;24.776;2023-03-03T07:36:50;100023.12;;;2.79;84.67
49779;BME280;36217;60.232;24.776;2023-03-03T07:39:30;100024.87;;;3.29;83.40
49779;BME280;36217;60.232;24.776;2023-03-03T07:42:09;100019.15;;;3.03;83.15
49779;BME280;36217;60.232;24.776;2023-03-03T07:44:39;100017.51;;;3.29;83.27
49779;BME280;36217;60.232;24.776;2023-03-03T07:47:16;100015.05;;;2.94;81.72
49779;BME280;36217;60.232;24.776;2023-03-03T07:49:45;100016.61;;;3.26;81.99
49779;BME280;36217;60.232;24.776;2023-03-03T07:52:23;100022.31;;;3.21;81.65
49779;BME280;36217;60.232;24.776;2023-03-03T07:54:52;100020.27;;;3.30;81.50
49779;BME280;36217;60.232;24.776;2023-03-03T07:57:22;100023.91;;;3.19;81.03
49779;BME280;36217;60.232;24.776;2023-03-03T07:59:51;100027.66;;;3.64;80.97
49779;BME280;36217;60.232;24.776;2023-03-03T08:02:39;100028.03;;;3.63;80.77
49779;BME280;36217;60.232;24.776;2023-03-03T08:05:41;100028.80;;;3.69;80.47
49779;BME280;36217;60.232;24.776;2023-03-03T08:08:18;100027.50;;;3.57;79.08
49779;BME280;36217;60.232;24.776;2023-03-03T08:10:48;100026.12;;;3.63;79.18
49779;BME280;36217;60.232;24.776;2023-03-03T08:13:18;100029.47;;;3.73;79.09
49779;BME280;36217;60.232;24.776;2023-03-03T08:15:49;100027.69;;;3.68;78.67
49779;BME280;36217;60.232;24.776;2023-03-03T08:18:22;100029.77;;;3.21;79.30
49779;BME280;36217;60.232;24.776;2023-03-03T08:20:51;100026.83;;;3.67;78.34
49779;BME280;36217;60.232;24.776;2023-03-03T08:23:20;100023.20;;;3.83;77.41
49779;BME280;36217;60.232;24.776;2023-03-03T08:25:49;100030.14;;;4.00;76.70
49779;BME280;36217;60.232;24.776;2023-03-03T08:28:18;100037.45;;;3.47;77.13
49779;BME280;36217;60.232;24.776;2023-03-03T08:30:46;100035.79;;;3.78;76.88
49779;BME280;36217;60.232;24.776;2023-03-03T08:33:14;100028.29;;;3.83;76.72
49779;BME280;36217;60.232;24.776;2023-03-03T08:35:42;100028.92;;;3.71;76.02
49779;BME280;36217;60.232;24.776;2023-03-03T08:38:12;100029.93;;;4.25;75.85
49779;BME280;36217;60.232;24.776;2023-03-03T08:40:39;100025.68;;;3.61;76.10
49779;BME280;36217;60.232;24.776;2023-03-03T08:43:07;100021.60;;;3.61;76.34
49779;BME280;36217;60.232;24.776;2023-03-03T08:45:34;100023.91;;;3.63;76.18
49779;BME280;36217;60.232;24.776;2023-03-03T08:48:01;100024.65;;;3.87;75.53
49779;BME280;36217;60.232;24.776;2023-03-03T08:50:29;100025.04;;;3.95;75.71
49779;BME280;36217;60.232;24.776;2023-03-03T08:52:56;100019.09;;;3.79;74.28
49779;BME280;36217;60.232;24.776;2023-03-03T08:55:23;100020.62;;;3.53;75.52
49779;BME280;36217;60.232;24.776;2023-03-03T08:57:50;100016.87;;;3.88;75.81
49779;BME280;36217;60.232;24.776;2023-03-03T09:00:18;100018.07;;;3.78;74.73
49779;BME280;36217;60.232;24.776;2023-03-03T09:02:45;100015.00;;;3.94;74.54
49779;BME280;36217;60.232;24.776;2023-03-03T09:05:12;100003.41;;;3.58;75.06
49779;BME280;36217;60.232;24.776;2023-03-03T09:07:40;99998.84;;;3.77;75.08
49779;BME280;36217;60.232;24.776;2023-03-03T09:10:09;99992.97;;;4.22;73.50
49779;BME280;36217;60.232;24.776;2023-03-03T09:12:39;99997.15;;;3.99;74.50
49779;BME280;36217;60.232;24.776;2023-03-03T09:15:16;99990.93;;;4.19;73.27
49779;BME280;36217;60.232;24.776;2023-03-03T09:17:44;99990.98;;;4.05;73.82
49779;BME280;36217;60.232;24.776;2023-03-03T09:20:24;99987.71;;;4.05;74.27
49779;BME280;36217;60.232;24.776;2023-03-03T09:22:53;99983.42;;;4.28;73.66
49779;BME280;36217;60.232;24.776;2023-03-03T09:25:26;99983.53;;;4.55;72.40
49779;BME280;36217;60.232;24.776;2023-03-03T09:27:56;99981.97;;;4.28;72.89
49779;BME280;36217;60.232;24.776;2023-03-03T09:30:36;99978.76;;;4.14;73.54
49779;BME280;36217;60.232;24.776;2023-03-03T09:33:22;99973.65;;;4.25;72.19
49779;BME280;36217;60.232;24.776;2023-03-03T09:35:52;99970.44;;;4.22;73.01
49779;BME280;36217;60.232;24.776;2023-03-03T09:38:26;99966.52;;;4.00;72.10
49779;BME280;36217;60.232;24.776;2023-03-03T09:41:08;99957.99;;;4.01;70.99
49779;BME280;36217;60.232;24.776;2023-03-03T09:43:47;99956.70;;;4.01;72.18
49779;BME280;36217;60.232;24.776;2023-03-03T09:46:23;99951.86;;;4.44;71.75
49779;BME280;36217;60.232;24.776;2023-03-03T09:49:04;99947.18;;;4.33;71.12
49779;BME280;36217;60.232;24.776;2023-03-03T09:51:46;99941.94;;;3.78;73.47
49779;BME280;36217;60.232;24.776;2023-03-03T09:54:25;99939.58;;;3.63;72.12
49779;BME280;36217;60.232;24.776;2023-03-03T09:57:04;99940.17;;;3.81;71.87
49779;BME280;36217;60.232;24.776;2023-03-03T09:59:47;99936.95;;;4.27;70.61
49779;BME280;36217;60.232;24.776;2023-03-03T10:02:30;99935.99;;;3.75;71.68
49779;BME280;36217;60.232;24.776;2023-03-03T10:05:13;99931.63;;;4.46;70.38
49779;BME280;36217;60.232;24.776;2023-03-03T10:07:51;99931.10;;;4.61;69.49
49779;BME280;36217;60.232;24.776;2023-03-03T10:10:42;99924.79;;;4.42;69.96
49779;BME280;36217;60.232;24.776;2023-03-03T10:13:21;99919.02;;;3.92;72.21
49779;BME280;36217;60.232;24.776;2023-03-03T10:16:15;99914.63;;;4.25;70.15
49779;BME280;36217;60.232;24.776;2023-03-03T10:18:50;99911.93;;;4.24;70.76
49779;BME280;36217;60.232;24.776;2023-03-03T10:21:23;99906.27;;;4.08;69.13
49779;BME280;36217;60.232;24.776;2023-03-03T10:23:54;99908.85;;;4.39;67.86
49779;BME280;36217;60.232;24.776;2023-03-03T10:26:44;99906.21;;;3.91;68.66
49779;BME280;36217;60.232;24.776;2023-03-03T10:29:23;99909.31;;;3.84;67.17
49779;BME280;36217;60.232;24.776;2023-03-03T10:32:01;99907.30;;;4.31;67.10
49779;BME280;36217;60.232;24.776;2023-03-03T10:34:47;99902.92;;;4.51;67.09
49779;BME280;36217;60.232;24.776;2023-03-03T10:37:23;99892.92;;;4.08;66.91
49779;BME280;36217;60.232;24.776;2023-03-03T10:40:02;99887.60;;;4.35;68.28
49779;BME280;36217;60.232;24.776;2023-03-03T10:42:44;99883.02;;;4.23;66.79
49779;BME280;36217;60.232;24.776;2023-03-03T10:45:32;99881.59;;;3.77;67.86
49779;BME280;36217;60.232;24.776;2023-03-03T10:48:12;99871.49;;;4.22;66.83
49779;BME280;36217;60.232;24.776;2023-03-03T10:50:50;99868.95;;;4.14;67.18
49779;BME280;36217;60.232;24.776;2023-03-03T10:53:23;99873.48;;;4.35;68.02
49779;BME280;36217;60.232;24.776;2023-03-03T10:56:14;99863.02;;;4.07;65.71
49779;BME280;36217;60.232;24.776;2023-03-03T10:58:49;99858.11;;;4.09;65.72
49779;BME280;36217;60.232;24.776;2023-03-03T11:01:28;99855.75;;;4.11;66.05
49779;BME280;36217;60.232;24.776;2023-03-03T11:04:17;99845.86;;;4.21;65.89
49779;BME280;36217;60.232;24.776;2023-03-03T11:06:54;99844.22;;;4.05;65.35
49779;BME280;36217;60.232;24.776;2023-03-03T11:09:36;99841.72;;;4.51;66.20
49779;BME280;36217;60.232;24.776;2023-03-03T11:12:15;99829.92;;;4.43;66.05
49779;BME280;36217;60.232;24.776;2023-03-03T11:14:55;99829.45;;;3.88;66.34
49779;BME280;36217;60.232;24.776;2023-03-03T11:17:41;99819.98;;;4.48;63.37
49779;BME280;36217;60.232;24.776;2023-03-03T11:20:23;99814.17;;;4.97;64.73
49779;BME280;36217;60.232;24.776;2023-03-03T11:22:57;99816.94;;;4.18;63.64
49779;BME280;36217;60.232;24.776;2023-03-03T11:25:34;99808.74;;;4.13;63.20
49779;BME280;36217;60.232;24.776;2023-03-03T11:28:18;99801.75;;;4.34;61.93
49779;BME280;36217;60.232;24.776;2023-03-03T11:30:55;99797.28;;;4.23;62.62
49779;BME280;36217;60.232;24.776;2023-03-03T11:33:33;99794.98;;;4.18;62.84
49779;BME280;36217;60.232;24.776;2023-03-03T11:36:09;99786.82;;;4.22;63.40
49779;BME280;36217;60.232;24.776;2023-03-03T11:38:46;99775.41;;;4.12;62.38
49779;BME280;36217;60.232;24.776;2023-03-03T11:41:25;99789.99;;;4.20;63.03
49779;BME280;36217;60.232;24.776;2023-03-03T11:43:59;99785.27;;;3.94;61.42
49779;BME280;36217;60.232;24.776;2023-03-03T11:46:35;99787.84;;;3.97;62.22
49779;BME280;36217;60.232;24.776;2023-03-03T11:49:06;99774.44;;;4.28;61.96
49779;BME280;36217;60.232;24.776;2023-03-03T11:51:46;99778.32;;;4.46;64.01
49779;BME280;36217;60.232;24.776;2023-03-03T11:54:20;99767.62;;;4.45;64.21
49779;BME280;36217;60.232;24.776;2023-03-03T11:56:50;99766.76;;;4.61;62.09
49779;BME280;36217;60.232;24.776;2023-03-03T11:59:40;99761.60;;;4.14;63.00
49779;BME280;36217;60.232;24.776;2023-03-03T12:02:20;99751.62;;;4.66;65.24
49779;BME280;36217;60.232;24.776;2023-03-03T12:04:52;99747.66;;;4.57;63.36
49779;BME280;36217;60.232;24.776;2023-03-03T12:07:29;99740.68;;;4.91;60.68
49779;BME280;36217;60.232;24.776;2023-03-03T12:10:12;99740.93;;;4.38;62.07
49779;BME280;36217;60.232;24.776;2023-03-03T12:12:42;99736.63;;;4.96;61.53
49779;BME280;36217;60.232;24.776;2023-03-03T12:15:18;99725.73;;;4.32;62.52
49779;BME280;36217;60.232;24.776;2023-03-03T12:18:14;99721.65;;;4.60;63.10
49779;BME280;36217;60.232;24.776;2023-03-03T12:20:50;99714.61;;;4.71;62.22
49779;BME280;36217;60.232;24.776;2023-03-03T12:23:38;99705.39;;;4.79;63.10
49779;BME280;36217;60.232;24.776;2023-03-03T12:26:13;99695.31;;;4.64;63.72
49779;BME280;36217;60.232;24.776;2023-03-03T12:28:49;99695.36;;;4.77;61.05
49779;BME280;36217;60.232;24.776;2023-03-03T12:31:34;99693.96;;;4.77;61.36
49779;BME280;36217;60.232;24.776;2023-03-03T12:34:11;99688.05;;;4.29;62.65
49779;BME280;36217;60.232;24.776;2023-03-03T12:37:06;99686.40;;;4.40;62.58
49779;BME280;36217;60.232;24.776;2023-03-03T12:39:44;99691.09;;;4.47;62.12
49779;BME280;36217;60.232;24.776;2023-03-03T12:42:23;99681.70;;;4.34;61.15
49779;BME280;36217;60.232;24.776;2023-03-03T12:44:59;99677.24;;;4.68;61.65
49779;BME280;36217;60.232;24.776;2023-03-03T12:47:37;99671.45;;;5.06;61.96
49779;BME280;36217;60.232;24.776;2023-03-03T12:50:21;99662.94;;;4.49;63.54
49779;BME280;36217;60.232;24.776;2023-03-03T12:52:57;99658.64;;;4.52;65.87
49779;BME280;36217;60.232;24.776;2023-03-03T12:55:35;99651.12;;;5.04;63.84
49779;BME280;36217;60.232;24.776;2023-03-03T12:58:10;99640.01;;;4.71;65.27
49779;BME280;36217;60.232;24.776;2023-03-03T13:00:48;99635.78;;;4.78;63.23
49779;BME280;36217;60.232;24.776;2023-03-03T13:03:31;99635.08;;;4.78;64.65
49779;BME280;36217;60.232;24.776;2023-03-03T13:06:08;99630.67;;;4.78;62.45
49779;BME280;36217;60.232;24.776;2023-03-03T13:08:50;99621.19;;;5.22;65.41
49779;BME280;36217;60.232;24.776;2023-03-03T13:11:31;99615.19;;;4.61;64.59
49779;BME280;36217;60.232;24.776;2023-03-03T13:14:12;99608.11;;;4.96;64.22
49779;BME280;36217;60.232;24.776;2023-03-03T13:16:48;99599.08;;;4.74;63.54